Fort Mitchell, KY

12:59 PM EST on December 28, 2014 (GMT -0500)
APRSWXNET Independence KY US | Change Station
CLOSE
Current Station
Personal Weather Station
Location: Edgewood, KY
Elevation: 700 ft
Nearby Weather Stations

Elev 700 ft 38.99 °N, 84.53 °W | Updated 11 hours ago

Partly Cloudy
Partly Cloudy
37 °F
Feels Like 37 °F
N
5
Wind Variable Wind from NNW
Gusts 6 mph

Today
High -- | Low -- °F
--% Chance of Precip.
Yesterday
High -- | Low -- °F
Precip. -- in
7:56 AM 5:23 PM
Waxing Crescent, 50% visible
Pressure 30.14 in
Visibility 9.0 miles
Clouds Mostly Cloudy 1600 ft
Overcast 1900 ft
Dew Point 32 °F
Humidity 79%
Rainfall 0.33 in
Snow Depth Not available.
UV 1 out of 12
Pollen .10 out of 12
Air Quality Not available.
Flu Activity Not available.
METAR KCVG 281752Z 32005KT 9SM BKN016 OVC019 02/M03 A3013 RMK AO2 SLP204 60000 T00221028 10022 20011 58008

More Conditions Fewer Conditions

Pressure 30.14 in
Visibility 9.0 miles
Clouds Mostly Cloudy 1600 ft
Overcast 1900 ft
Dew Point 32 °F
Humidity 79%
Rainfall 0.33 in
Snow Depth Not available.
UV 1 out of 12
Pollen .10 out of 12
Air Quality Not available.
Flu Activity Not available.
METAR KCVG 281752Z 32005KT 9SM BKN016 OVC019 02/M03 A3013 RMK AO2 SLP204 60000 T00221028 10022 20011 58008

More Conditions Fewer Conditions

10-Day Weather Forecast

Almanac

Astronomy

Dec. 28, 2014 Rise Set
Actual Time
Civil Twilight
Nautical Twilight
Astronomical Twilight
Moon
Length of Visible Light
Length of Day
Tomorrow will be .
, % of the Moon is Illuminated

Today's Extremes

State Highs State Lows

Community

WunderPhotos

Upload Photos

1,781,367 photos uploaded!

WunderBlogs® & News

Nearby

Air Quality

  Air Quality AQ Index Pollutant
Not available.

Snow Depth

Station Depth Elevation

Earthquake Activity

City Distance Mag. Time & Date
Minimum magnitude displayed is 2.5.

Coastal Water Temperatures

Place Temperature

Nearby Weather Stations